Time;durP1;ratioP1;P1;durP2;ratioP2;P2;SDS_P1;SDS_P2;PMS_P1;PMS_P2;Temp;Humidity;BMP_temperature;BMP_pressure;BME280_temperature;BME280_humidity;BME280_pressure;Samples;Min_cycle;Max_cycle;Signal;HPM_P1;HPM_P2
2022/05/01 00:01:21;;;;;;;42.58;22.63;;;;;;;13.86;63.75;100430.22;4941905;28;20414;-86
2022/05/01 00:03:49;;;;;;;42.33;21.38;;;;;;;13.86;63.61;100435.56;4934344;28;20131;-85
2022/05/01 00:06:15;;;;;;;41.38;24.17;;;;;;;13.85;63.85;100425.06;4941854;28;20042;-86
2022/05/01 00:08:43;;;;;;;45.90;22.90;;;;;;;13.83;63.90;100429.69;4985921;28;20054;-86
2022/05/01 00:11:09;;;;;;;39.50;22.75;;;;;;;13.81;63.91;100435.16;4950184;28;20138;-86
2022/05/01 00:13:43;;;;;;;39.15;22.10;;;;;;;13.80;64.07;100433.47;4970751;28;20133;-85
2022/05/01 00:16:11;;;;;;;35.55;21.98;;;;;;;13.80;64.02;100429.97;4978174;28;20058;-85
2022/05/01 00:18:39;;;;;;;40.22;22.13;;;;;;;13.79;64.08;100439.81;4967051;28;20050;-84
2022/05/01 00:21:06;;;;;;;38.78;22.08;;;;;;;13.80;63.96;100435.31;4953804;28;20042;-85
2022/05/01 00:23:38;;;;;;;39.58;21.70;;;;;;;13.80;64.23;100435.31;4951038;28;20042;-85
2022/05/01 00:26:06;;;;;;;36.10;20.88;;;;;;;13.79;63.90;100434.47;4963484;28;20050;-87
2022/05/01 00:28:36;;;;;;;37.90;20.92;;;;;;;13.79;63.85;100434.47;4965572;28;20156;-87
2022/05/01 00:31:07;;;;;;;37.67;20.95;;;;;;;13.77;63.96;100427.59;4936198;28;20121;-87
2022/05/01 00:36:28;;;;;;;36.05;20.75;;;;;;;13.76;63.71;100426.72;4943506;28;20043;-84
2022/05/01 00:39:02;;;;;;;42.28;22.27;;;;;;;13.73;63.73;100426.19;4958729;28;20058;-83
2022/05/01 00:41:30;;;;;;;40.88;22.20;;;;;;;13.71;63.56;100426.31;4981123;28;20081;-83
2022/05/01 00:44:04;;;;;;;42.25;23.70;;;;;;;13.67;63.76;100425.75;4954079;28;20056;-83
2022/05/01 00:46:33;;;;;;;40.35;22.30;;;;;;;13.67;63.67;100427.59;4945118;28;20042;-83
2022/05/01 00:49:01;;;;;;;46.45;22.35;;;;;;;13.67;63.70;100420.44;4959625;28;20046;-83
2022/05/01 00:51:30;;;;;;;36.05;20.23;;;;;;;13.70;63.47;100426.47;4981681;28;20490;-83
2022/05/01 00:53:59;;;;;;;40.60;21.17;;;;;;;13.64;63.63;100426.06;4962070;28;20058;-82
2022/05/01 00:56:26;;;;;;;41.08;20.98;;;;;;;13.60;63.46;100423.81;4966637;28;20525;-83
2022/05/01 00:58:53;;;;;;;40.10;20.70;;;;;;;13.61;63.74;100429.00;4952259;28;20060;-82
2022/05/01 01:01:20;;;;;;;39.45;22.08;;;;;;;13.57;63.73;100429.44;4970067;28;20092;-82
2022/05/01 01:03:48;;;;;;;42.85;22.02;;;;;;;13.44;64.10;100425.22;4978272;28;20058;-82
2022/05/01 01:06:15;;;;;;;41.58;22.08;;;;;;;13.48;63.94;100428.44;4993529;28;20156;-84
2022/05/01 01:08:43;;;;;;;40.42;21.40;;;;;;;13.52;64.07;100429.00;4967274;28;20093;-84
2022/05/01 01:11:09;;;;;;;36.03;21.38;;;;;;;13.56;63.74;100427.72;4934430;28;20494;-85
2022/05/01 01:13:36;;;;;;;41.17;22.10;;;;;;;13.56;63.71;100422.38;4965157;28;20057;-84
2022/05/01 01:16:10;;;;;;;38.58;22.45;;;;;;;13.56;64.08;100423.25;4937985;28;20057;-85
2022/05/01 01:18:39;;;;;;;39.35;22.17;;;;;;;13.57;63.57;100426.75;4935278;28;20062;-84
2022/05/01 01:21:26;;;;;;;37.63;20.95;;;;;;;13.58;63.84;100420.44;4919256;28;20054;-84
2022/05/01 01:23:53;;;;;;;37.92;21.75;;;;;;;13.62;63.60;100428.00;4962082;28;20122;-84
2022/05/01 01:26:20;;;;;;;45.65;21.98;;;;;;;13.59;63.27;100430.13;4955065;28;20109;-84
2022/05/01 01:28:48;;;;;;;39.20;19.98;;;;;;;13.56;63.34;100427.72;4969361;28;20042;-85
2022/05/01 01:34:06;;;;;;;42.45;21.15;;;;;;;13.52;63.10;100431.69;4984776;28;20080;-84
2022/05/01 01:36:35;;;;;;;37.50;20.15;;;;;;;13.54;63.08;100425.22;4982308;28;20145;-85
2022/05/01 01:39:02;;;;;;;35.58;20.75;;;;;;;13.57;63.35;100426.75;4965895;28;20046;-83
2022/05/01 01:41:30;;;;;;;39.03;20.15;;;;;;;13.59;63.43;100422.13;4940052;28;20064;-83
2022/05/01 01:43:58;;;;;;;36.05;20.73;;;;;;;13.59;63.72;100422.13;4956934;28;20462;-83
2022/05/01 01:46:25;;;;;;;38.65;21.80;;;;;;;13.56;63.68;100425.06;4970127;28;20046;-83
2022/05/01 01:48:53;;;;;;;37.00;21.05;;;;;;;13.57;63.79;100424.94;4971356;28;20057;-83
2022/05/01 01:51:19;;;;;;;37.72;20.00;;;;;;;13.56;63.67;100422.38;4968681;28;20045;-83
2022/05/01 01:53:47;;;;;;;32.33;18.77;;;;;;;13.57;63.94;100416.94;4972753;28;20045;-83
2022/05/01 01:56:14;;;;;;;35.63;18.80;;;;;;;13.58;64.09;100413.25;4990428;28;20125;-83
2022/05/01 01:58:41;;;;;;;37.53;19.15;;;;;;;13.60;64.08;100410.47;4962646;28;20517;-82
2022/05/01 02:01:10;;;;;;;39.60;19.02;;;;;;;13.60;63.96;100407.78;4979099;28;20398;-83
2022/05/01 02:03:39;;;;;;;34.50;19.25;;;;;;;13.58;64.16;100404.41;4968792;28;20038;-83
2022/05/01 02:06:09;;;;;;;32.35;19.35;;;;;;;13.55;64.38;100405.53;4982817;28;20104;-83
2022/05/01 02:08:36;;;;;;;36.90;19.48;;;;;;;13.55;64.47;100402.03;4952296;28;20050;-83
2022/05/01 02:11:04;;;;;;;35.67;19.00;;;;;;;13.53;64.42;100402.16;4969486;28;20056;-83
2022/05/01 02:13:34;;;;;;;30.38;18.10;;;;;;;13.54;64.35;100397.69;4955679;28;20052;-83
2022/05/01 02:16:01;;;;;;;35.00;18.23;;;;;;;13.53;64.30;100399.50;4964873;28;20042;-83
2022/05/01 02:18:28;;;;;;;31.90;18.25;;;;;;;13.54;64.60;100403.88;4934387;28;20150;-83
2022/05/01 02:23:40;;;;;;;32.83;18.00;;;;;;;13.53;64.38;100401.34;4953834;28;20042;-83
2022/05/01 02:26:07;;;;;;;29.77;17.98;;;;;;;13.52;64.75;100400.50;4969601;28;20363;-83
2022/05/01 02:28:34;;;;;;;36.53;19.27;;;;;;;13.52;64.42;100394.31;4966284;28;20088;-83
2022/05/01 02:31:00;;;;;;;36.22;18.45;;;;;;;13.52;64.65;100400.50;4974369;28;20046;-82
2022/05/01 02:33:27;;;;;;;31.20;18.83;;;;;;;13.52;64.44;100397.00;4966819;28;20047;-83
2022/05/01 02:35:54;;;;;;;33.90;18.77;;;;;;;13.49;64.47;100395.44;4954077;28;20046;-83
2022/05/01 02:38:21;;;;;;;34.00;19.60;;;;;;;13.49;64.74;100394.59;4955080;28;20047;-83
2022/05/01 02:40:47;;;;;;;35.40;18.30;;;;;;;13.47;64.63;100394.75;4947569;28;20047;-83
2022/05/01 02:43:14;;;;;;;32.63;17.20;;;;;;;13.46;64.62;100387.72;4963496;28;20101;-83
2022/05/01 02:45:41;;;;;;;29.77;17.33;;;;;;;13.44;64.69;100387.84;4965230;28;20498;-83
2022/05/01 02:52:41;;;;;;;31.92;18.17;;;;;;;13.43;64.62;100386.19;4975512;28;20050;-83
2022/05/01 02:55:09;;;;;;;34.10;18.10;;;;;;;13.44;64.62;100393.19;4966320;28;20117;-83
2022/05/01 02:57:35;;;;;;;30.08;16.20;;;;;;;13.44;64.71;100387.03;4960064;28;20054;-82
2022/05/01 03:00:05;;;;;;;29.50;18.13;;;;;;;13.43;64.85;100393.31;4966332;28;20043;-82
2022/05/01 03:03:01;;;;;;;29.27;17.63;;;;;;;13.40;65.04;100389.13;4962018;28;20521;-83
2022/05/01 03:05:28;;;;;;;31.83;18.17;;;;;;;13.46;64.80;100385.91;4952312;28;20514;-83
2022/05/01 03:07:55;;;;;;;32.63;18.20;;;;;;;13.48;65.01;100390.25;4954342;28;20053;-83
2022/05/01 03:10:23;;;;;;;34.85;20.15;;;;;;;13.44;64.98;100393.19;4966436;28;20049;-83
2022/05/01 03:12:50;;;;;;;31.27;18.38;;;;;;;13.46;64.96;100382.41;4915616;28;20889;-83
2022/05/01 03:15:17;;;;;;;32.42;18.58;;;;;;;13.48;64.81;100383.06;4943771;28;20050;-84
2022/05/01 03:23:23;;;;;;;25.63;16.65;;;;;;;13.42;64.77;100376.47;4969335;28;20048;-85
2022/05/01 03:25:50;;;;;;;30.67;17.05;;;;;;;13.42;64.78;100372.97;4973032;28;20498;-84
2022/05/01 03:28:17;;;;;;;34.75;19.00;;;;;;;13.40;64.97;100370.44;4963423;28;20116;-84
2022/05/01 03:30:44;;;;;;;31.13;17.55;;;;;;;13.41;64.96;100365.97;4985611;28;20217;-85
2022/05/01 03:33:10;;;;;;;27.80;15.68;;;;;;;13.40;64.74;100367.78;4970702;28;20046;-85
2022/05/01 03:35:38;;;;;;;26.20;15.88;;;;;;;13.38;64.92;100367.09;4967759;28;20516;-85
2022/05/01 03:38:09;;;;;;;30.35;16.52;;;;;;;13.39;64.98;100367.94;4948158;28;20098;-85
2022/05/01 03:40:35;;;;;;;29.23;16.95;;;;;;;13.39;65.07;100362.59;4962320;28;20050;-86
2022/05/01 03:43:04;;;;;;;31.27;17.40;;;;;;;13.39;65.06;100368.75;4971212;28;20092;-85
2022/05/01 03:45:31;;;;;;;28.80;17.20;;;;;;;13.39;64.72;100362.59;4934290;28;20042;-84
2022/05/01 03:47:58;;;;;;;27.58;16.23;;;;;;;13.38;65.01;100367.09;4952523;28;20387;-85
2022/05/01 03:50:25;;;;;;;28.95;16.33;;;;;;;13.36;64.80;100368.22;4962645;28;20042;-85
2022/05/01 03:52:52;;;;;;;30.60;15.88;;;;;;;13.35;64.87;100367.34;4951934;28;20674;-85
2022/05/01 03:55:19;;;;;;;28.95;17.38;;;;;;;13.36;65.02;100370.88;4937721;28;20104;-84
2022/05/01 03:57:46;;;;;;;32.33;16.30;;;;;;;13.35;65.08;100371.84;4966739;28;20054;-83
2022/05/01 04:00:18;;;;;;;33.45;16.90;;;;;;;13.35;64.87;100363.84;4986244;28;20051;-83
2022/05/01 04:02:46;;;;;;;26.90;16.10;;;;;;;13.35;65.09;100371.84;4953547;28;20038;-83
2022/05/01 04:05:13;;;;;;;30.30;17.15;;;;;;;13.34;65.08;100370.19;4950248;28;20043;-82
2022/05/01 04:07:41;;;;;;;33.45;17.10;;;;;;;13.33;65.26;100372.00;4970987;28;20112;-83
2022/05/01 04:10:08;;;;;;;33.05;16.85;;;;;;;13.32;65.22;100364.97;4981617;28;20132;-82
2022/05/01 04:12:39;;;;;;;29.55;15.85;;;;;;;13.30;65.48;100366.94;4953042;28;20065;-84
2022/05/01 04:15:09;;;;;;;27.67;15.68;;;;;;;13.32;65.14;100378.31;4964581;28;20045;-84
2022/05/01 04:17:40;;;;;;;28.90;16.20;;;;;;;13.30;65.44;100380.25;4950841;28;20043;-84
2022/05/01 04:20:09;;;;;;;27.52;15.00;;;;;;;13.30;65.29;100384.75;4949159;28;20057;-83
2022/05/01 04:22:47;;;;;;;26.77;15.55;;;;;;;13.21;65.87;100376.59;4983106;28;20133;-83
2022/05/01 04:25:16;;;;;;;31.13;16.40;;;;;;;13.24;65.45;100370.13;4983211;28;20137;-83
2022/05/01 04:27:44;;;;;;;28.60;16.58;;;;;;;13.25;65.51;100378.00;4950523;28;20054;-84
2022/05/01 04:30:12;;;;;;;28.98;16.83;;;;;;;13.23;65.31;100379.13;4973657;28;20046;-83
2022/05/01 04:32:56;;;;;;;31.52;17.60;;;;;;;13.18;65.42;100381.38;4966897;28;20133;-83
2022/05/01 04:35:33;;;;;;;31.30;16.63;;;;;;;13.22;65.41;100382.75;4951057;28;20579;-83
2022/05/01 04:38:21;;;;;;;30.42;16.42;;;;;;;13.18;65.65;100390.22;4924453;28;20042;-84
2022/05/01 04:40:52;;;;;;;33.85;17.90;;;;;;;13.19;65.51;100385.72;4958725;28;20050;-84
2022/05/01 04:43:22;;;;;;;27.52;16.98;;;;;;;13.19;65.48;100383.88;4979947;28;20050;-82
2022/05/01 04:45:55;;;;;;;30.67;17.45;;;;;;;13.16;66.10;100384.16;4971816;28;20918;-83
2022/05/01 04:48:24;;;;;;;28.10;17.55;;;;;;;13.17;65.85;100380.50;4985664;28;20049;-82
2022/05/01 04:50:51;;;;;;;32.45;18.33;;;;;;;13.17;65.94;100383.19;4987952;28;20049;-82
2022/05/01 04:53:19;;;;;;;29.00;17.05;;;;;;;13.21;65.96;100383.75;4969169;28;20059;-83
2022/05/01 04:55:47;;;;;;;32.67;18.45;;;;;;;13.19;65.95;100381.22;4941362;28;20640;-83
2022/05/01 04:58:15;;;;;;;29.55;16.42;;;;;;;13.19;65.72;100383.88;4969986;28;20065;-83
2022/05/01 05:01:07;;;;;;;31.25;17.83;;;;;;;13.14;66.45;100385.28;4986019;28;20046;-83
2022/05/01 05:03:34;;;;;;;27.03;16.30;;;;;;;13.20;65.88;100382.91;4954965;28;20057;-83
2022/05/01 05:06:01;;;;;;;36.30;17.00;;;;;;;13.20;65.94;100385.59;4956392;28;20042;-82
2022/05/01 05:11:13;;;;;;;30.85;18.63;;;;;;;13.20;66.01;100387.38;4958720;28;20045;-83
2022/05/01 05:14:09;;;;;;;34.47;18.48;;;;;;;13.15;66.22;100393.16;4974737;28;20041;-83
2022/05/01 05:16:35;;;;;;;34.33;17.48;;;;;;;13.22;65.73;100391.59;4947365;28;20042;-83
2022/05/01 05:19:02;;;;;;;26.67;16.25;;;;;;;13.21;66.00;100400.59;4951809;28;20064;-83
2022/05/01 05:21:29;;;;;;;29.45;16.75;;;;;;;13.25;65.75;100403.81;4956290;28;20053;-83
2022/05/01 05:23:56;;;;;;;30.00;17.58;;;;;;;13.24;65.85;100404.81;4988457;28;20474;-83
2022/05/01 05:26:23;;;;;;;31.30;17.83;;;;;;;13.24;65.61;100397.66;4954589;28;20482;-83
2022/05/01 05:28:50;;;;;;;27.85;18.05;;;;;;;13.27;65.91;100409.88;4959550;28;20042;-82
2022/05/01 05:31:16;;;;;;;31.67;18.20;;;;;;;13.29;65.87;100415.94;4960596;28;20054;-87
2022/05/01 05:33:43;;;;;;;31.60;18.48;;;;;;;13.29;65.87;100410.59;4965911;28;21232;-84
2022/05/01 05:36:10;;;;;;;31.85;18.40;;;;;;;13.29;65.92;100412.44;4952940;28;20037;-85
2022/05/01 05:38:38;;;;;;;36.42;19.55;;;;;;;13.27;65.75;100409.88;4953251;28;20192;-85
2022/05/01 05:41:05;;;;;;;37.45;19.65;;;;;;;13.28;66.03;100413.41;4912084;28;20414;-85
2022/05/01 05:43:31;;;;;;;35.75;18.08;;;;;;;13.29;65.93;100410.59;4952606;28;20069;-85
2022/05/01 05:45:58;;;;;;;33.63;18.60;;;;;;;13.30;66.01;100406.94;4951282;28;20049;-85
2022/05/01 05:48:25;;;;;;;29.65;18.48;;;;;;;13.30;65.78;100408.78;4938204;28;20053;-85
2022/05/01 05:50:52;;;;;;;34.78;18.42;;;;;;;13.31;65.86;100415.81;4932527;28;20057;-86
2022/05/01 05:53:21;;;;;;;36.95;19.50;;;;;;;13.30;65.87;100411.44;4950970;28;20058;-85
2022/05/01 05:55:48;;;;;;;37.60;20.77;;;;;;;13.31;66.02;100413.13;4963361;28;20545;-85
2022/05/01 05:58:15;;;;;;;39.80;20.15;;;;;;;13.33;65.92;100417.34;4933588;28;20051;-85
2022/05/01 06:00:41;;;;;;;27.92;17.58;;;;;;;13.31;66.23;100416.66;4949609;28;20051;-86
2022/05/01 06:03:08;;;;;;;36.13;19.75;;;;;;;13.34;65.99;100412.84;4951268;28;20532;-85
2022/05/01 06:05:35;;;;;;;34.13;19.02;;;;;;;13.35;66.00;100419.84;4952099;28;20049;-85
2022/05/01 06:08:02;;;;;;;35.28;18.70;;;;;;;13.35;66.26;100422.53;4949876;28;20053;-86
2022/05/01 06:10:34;;;;;;;29.65;17.67;;;;;;;13.34;66.16;100416.34;4953156;28;20047;-85
2022/05/01 06:13:00;;;;;;;37.17;19.98;;;;;;;13.38;66.00;100423.13;4946754;28;20502;-84
2022/05/01 06:15:27;;;;;;;30.63;18.33;;;;;;;13.37;66.31;100424.06;4946208;28;20057;-85
2022/05/01 06:17:54;;;;;;;35.15;20.10;;;;;;;13.38;66.12;100419.56;4961917;28;20066;-85
2022/05/01 06:20:20;;;;;;;31.80;19.65;;;;;;;13.40;65.83;100422.94;4950971;28;20054;-85
2022/05/01 06:22:51;;;;;;;40.72;20.55;;;;;;;13.36;65.98;100414.41;4947300;28;20127;-85
2022/05/01 06:25:17;;;;;;;37.40;19.88;;;;;;;13.37;65.89;100423.25;4930242;28;20048;-85
2022/05/01 06:27:44;;;;;;;37.42;19.50;;;;;;;13.38;65.83;100422.25;4952810;28;20072;-84
2022/05/01 06:30:11;;;;;;;35.80;20.48;;;;;;;13.37;65.82;100428.56;4984386;28;20055;-85
2022/05/01 06:32:39;;;;;;;39.97;20.67;;;;;;;13.37;65.85;100433.91;4952154;28;20069;-84
2022/05/01 06:35:07;;;;;;;37.30;21.52;;;;;;;13.38;65.92;100435.59;4953575;28;20502;-85
2022/05/01 06:37:35;;;;;;;39.25;20.45;;;;;;;13.40;65.90;100429.13;4983193;28;20096;-85
2022/05/01 06:40:03;;;;;;;39.22;21.38;;;;;;;13.40;66.01;100434.47;4956432;28;20061;-83
2022/05/01 06:42:31;;;;;;;31.35;19.77;;;;;;;13.43;66.04;100438.69;4961745;28;20744;-81
2022/05/01 06:44:58;;;;;;;35.00;20.15;;;;;;;13.43;65.83;100428.88;4970527;28;20510;-82
2022/05/01 06:47:25;;;;;;;35.75;21.30;;;;;;;13.44;66.00;100437.72;4954585;28;20046;-82
2022/05/01 06:49:51;;;;;;;36.65;20.70;;;;;;;13.45;66.35;100436.72;4970712;28;20052;-81
2022/05/01 06:52:23;;;;;;;37.45;20.15;;;;;;;13.42;66.08;100427.16;4983858;28;20046;-82
2022/05/01 06:54:53;;;;;;;30.23;18.20;;;;;;;13.43;65.98;100428.00;4969375;28;20096;-82
2022/05/01 06:57:20;;;;;;;37.78;20.15;;;;;;;13.45;65.97;100436.72;4980504;28;20046;-85
2022/05/01 06:59:47;;;;;;;38.20;19.50;;;;;;;13.46;66.32;100430.41;4971481;28;20073;-86
2022/05/01 07:02:15;;;;;;;33.58;19.48;;;;;;;13.46;66.29;100431.25;4984383;28;20069;-85
2022/05/01 07:04:43;;;;;;;37.08;20.48;;;;;;;13.48;66.32;100430.25;4966638;28;20041;-86
2022/05/01 07:07:10;;;;;;;43.63;19.60;;;;;;;13.51;65.84;100444.19;4964157;28;20053;-86
2022/05/01 07:09:37;;;;;;;38.75;20.38;;;;;;;13.50;66.13;100438.97;4970312;28;20061;-84
2022/05/01 07:12:06;;;;;;;39.33;20.42;;;;;;;13.51;66.24;100435.31;4963789;28;20105;-86
2022/05/01 07:14:33;;;;;;;38.30;20.38;;;;;;;13.53;66.24;100434.19;4982363;28;20038;-85
2022/05/01 07:17:00;;;;;;;34.17;18.42;;;;;;;13.55;65.87;100431.38;4948560;28;20049;-85
2022/05/01 07:19:26;;;;;;;39.97;20.23;;;;;;;13.55;66.22;100432.22;4966303;28;20052;-86
2022/05/01 07:21:53;;;;;;;35.45;20.00;;;;;;;13.57;66.20;100432.09;4978288;28;20053;-85
2022/05/01 07:24:20;;;;;;;35.70;19.40;;;;;;;13.58;66.31;100433.78;4951654;28;20089;-86
2022/05/01 07:26:46;;;;;;;39.28;20.05;;;;;;;13.60;66.45;100437.16;4950186;28;20053;-85
2022/05/01 07:29:13;;;;;;;35.38;20.55;;;;;;;13.63;66.04;100432.34;4934849;28;20474;-85
2022/05/01 07:31:42;;;;;;;38.42;20.90;;;;;;;13.65;66.33;100437.56;4965912;28;20050;-86
2022/05/01 07:34:11;;;;;;;36.85;19.52;;;;;;;13.66;66.07;100440.09;4953393;28;20077;-85
2022/05/01 07:36:38;;;;;;;37.50;20.23;;;;;;;13.70;66.11;100432.66;4975222;28;20074;-86
2022/05/01 07:39:05;;;;;;;36.85;20.15;;;;;;;13.70;66.11;100435.31;4967422;28;20075;-85
2022/05/01 07:41:33;;;;;;;33.50;19.38;;;;;;;13.77;65.85;100430.28;4950719;28;20048;-85
2022/05/01 07:44:00;;;;;;;40.03;20.30;;;;;;;13.77;65.93;100435.59;4971056;28;20045;-86
2022/05/01 07:46:27;;;;;;;43.30;21.25;;;;;;;13.77;66.21;100438.28;4985497;28;20478;-85
2022/05/01 07:48:54;;;;;;;38.28;20.15;;;;;;;13.80;66.26;100432.66;4931216;28;20047;-86
2022/05/01 07:51:20;;;;;;;35.97;19.23;;;;;;;13.81;66.43;100437.00;4982039;28;20050;-85
2022/05/01 07:53:47;;;;;;;37.90;20.65;;;;;;;13.82;66.42;100436.03;4968604;28;20077;-86
2022/05/01 07:57:07;;;;;;;49.72;22.52;;;;;;;13.76;66.10;100440.06;4982741;28;20153;-86
2022/05/01 07:59:34;;;;;;;49.25;21.30;;;;;;;13.87;65.98;100441.78;4945833;28;20105;-84
2022/05/01 08:02:01;;;;;;;44.97;21.55;;;;;;;13.87;66.30;100436.44;4984234;28;20097;-86
2022/05/01 08:04:29;;;;;;;41.25;22.13;;;;;;;13.88;66.12;100438.13;4959840;28;20554;-86
2022/05/01 08:07:00;;;;;;;47.97;22.42;;;;;;;13.89;66.10;100440.66;4981586;28;20038;-85
2022/05/01 08:09:28;;;;;;;42.85;20.85;;;;;;;13.92;66.24;100444.88;4986798;28;20042;-86
2022/05/01 08:11:55;;;;;;;42.30;21.50;;;;;;;13.89;66.29;100437.97;4970609;28;20054;-82
2022/05/01 08:14:23;;;;;;;38.95;21.13;;;;;;;13.92;66.52;100439.53;4981552;28;20049;-86
2022/05/01 08:16:50;;;;;;;41.35;20.98;;;;;;;13.96;66.46;100438.25;4983707;28;20108;-85
2022/05/01 08:22:07;;;;;;;39.38;20.08;;;;;;;13.98;66.53;100441.59;4994080;28;20047;-88
2022/05/01 08:24:35;;;;;;;37.88;19.65;;;;;;;13.97;66.52;100436.41;4984740;28;20498;-83
2022/05/01 08:27:07;;;;;;;45.13;21.00;;;;;;;13.98;66.67;100432.75;4965181;28;20051;-83
2022/05/01 08:29:34;;;;;;;44.80;21.20;;;;;;;14.03;66.44;100435.84;4966648;28;20150;-82
2022/05/01 08:32:03;;;;;;;41.45;21.23;;;;;;;14.03;66.08;100435.84;4964422;28;20102;-81
2022/05/01 08:34:29;;;;;;;40.78;21.30;;;;;;;14.08;65.92;100428.25;4964644;28;20130;-80
2022/05/01 08:36:56;;;;;;;41.88;20.17;;;;;;;14.10;66.23;100424.44;4947671;28;20047;-85
2022/05/01 08:39:23;;;;;;;38.33;19.75;;;;;;;14.06;65.95;100431.06;4976911;28;20047;-82
2022/05/01 08:41:50;;;;;;;36.75;19.73;;;;;;;14.07;66.11;100431.91;4982662;28;20049;-82
2022/05/01 08:44:23;;;;;;;35.88;19.83;;;;;;;14.09;65.84;100430.78;5002240;28;20818;-83
2022/05/01 08:46:55;;;;;;;37.78;18.42;;;;;;;14.09;65.86;100425.44;4996463;28;20050;-83
2022/05/01 08:49:22;;;;;;;39.45;19.70;;;;;;;14.13;66.00;100425.16;4982716;28;20050;-83
2022/05/01 08:51:51;;;;;;;41.00;19.35;;;;;;;14.13;65.91;100434.00;4969888;28;20045;-83
2022/05/01 08:54:17;;;;;;;33.63;18.70;;;;;;;14.16;66.21;100425.69;4984634;28;20042;-86
2022/05/01 08:56:46;;;;;;;40.80;19.65;;;;;;;14.17;66.15;100426.53;4979698;28;20054;-83
2022/05/01 08:59:15;;;;;;;38.00;21.10;;;;;;;14.25;65.79;100429.34;4965181;28;20050;-83
2022/05/01 09:01:44;;;;;;;39.78;19.90;;;;;;;14.28;65.68;100429.03;4980217;28;20078;-86
2022/05/01 09:04:15;;;;;;;45.63;21.05;;;;;;;14.30;65.46;100421.72;4995246;28;20424;-85
2022/05/01 09:06:43;;;;;;;35.65;18.63;;;;;;;14.22;65.61;100426.94;4967002;28;20490;-81
2022/05/01 09:09:18;;;;;;;37.10;20.48;;;;;;;14.18;65.65;100423.72;4974142;28;20042;-81
2022/05/01 09:14:35;;;;;;;37.90;20.20;;;;;;;14.14;66.16;100425.00;4962756;28;20402;-80
2022/05/01 09:17:23;;;;;;;36.70;19.90;;;;;;;14.22;66.13;100418.94;4947927;28;20046;-80
2022/05/01 09:20:04;;;;;;;30.85;16.65;;;;;;;14.25;66.01;100432.00;4967354;28;20585;-80
2022/05/01 09:22:47;;;;;;;37.25;19.48;;;;;;;14.27;66.04;100419.34;4951644;28;20053;-80
2022/05/01 09:25:18;;;;;;;32.85;18.30;;;;;;;14.31;65.67;100429.59;4934705;28;20497;-80
2022/05/01 09:27:45;;;;;;;36.55;19.10;;;;;;;14.41;65.51;100426.88;4998725;28;20050;-80
2022/05/01 09:30:16;;;;;;;37.00;19.10;;;;;;;14.44;65.23;100423.09;4995862;28;20043;-80
2022/05/01 09:32:43;;;;;;;33.60;18.67;;;;;;;14.51;64.86;100417.00;4976836;28;20038;-77
2022/05/01 09:35:32;;;;;;;32.33;17.10;;;;;;;14.45;64.52;100422.94;4982609;28;20072;-80
2022/05/01 09:38:17;;;;;;;32.95;16.33;;;;;;;14.44;63.92;100425.75;4962816;28;20042;-80
2022/05/01 09:40:46;;;;;;;24.13;14.07;;;;;;;14.55;64.18;100430.94;4957104;28;20100;-79
2022/05/01 09:43:46;;;;;;;33.72;18.17;;;;;;;14.57;63.92;100422.78;4971403;28;20100;-80
2022/05/01 09:46:25;;;;;;;33.03;17.95;;;;;;;14.66;64.02;100416.56;4918490;28;20461;-80
2022/05/01 09:49:00;;;;;;;32.75;17.48;;;;;;;14.57;63.73;100417.44;4969809;28;20137;-79
2022/05/01 09:51:47;;;;;;;25.45;16.83;;;;;;;14.62;64.27;100421.34;4993775;28;20038;-80
2022/05/01 09:54:25;;;;;;;31.23;17.17;;;;;;;14.47;64.06;100420.94;4947872;28;20068;-80
2022/05/01 09:56:59;;;;;;;27.70;16.38;;;;;;;14.53;64.04;100417.75;4949607;28;20050;-80
2022/05/01 09:59:28;;;;;;;31.25;15.98;;;;;;;14.62;63.40;100423.19;4954107;28;20046;-79
2022/05/01 10:02:02;;;;;;;24.60;14.27;;;;;;;14.57;62.89;100423.63;4969293;28;20058;-79
2022/05/01 10:04:34;;;;;;;26.23;15.55;;;;;;;14.62;62.90;100417.84;4966856;28;20042;-79
2022/05/01 10:07:02;;;;;;;25.40;15.27;;;;;;;14.64;62.94;100419.38;4987970;28;20054;-80
2022/05/01 10:09:30;;;;;;;28.83;14.65;;;;;;;14.69;62.52;100408.25;4955185;28;20045;-79
2022/05/01 10:12:04;;;;;;;24.30;14.27;;;;;;;14.61;62.07;100422.34;4963031;28;20043;-79
2022/05/01 10:14:32;;;;;;;25.10;14.80;;;;;;;14.75;62.04;100421.00;4983309;28;20479;-81
2022/05/01 10:17:00;;;;;;;23.63;13.38;;;;;;;14.60;62.69;100417.13;4985087;28;20074;-80
2022/05/01 10:19:27;;;;;;;22.33;13.50;;;;;;;14.46;62.43;100411.25;4967570;28;20153;-80
2022/05/01 10:21:56;;;;;;;25.88;14.27;;;;;;;14.53;62.23;100417.75;4986802;28;20083;-80
2022/05/01 10:24:23;;;;;;;22.45;13.45;;;;;;;14.44;62.21;100415.91;4972385;28;20072;-80
2022/05/01 10:27:35;;;;;;;26.58;13.63;;;;;;;14.35;61.01;100411.47;4971492;28;20437;-79
2022/05/01 10:33:31;;;;;;;23.10;12.63;;;;;;;14.47;60.91;100415.59;4948922;28;20046;-79
2022/05/01 10:36:10;;;;;;;20.35;13.10;;;;;;;14.44;61.11;100420.41;4886323;28;20053;-79
2022/05/01 10:38:44;;;;;;;19.60;12.20;;;;;;;14.43;60.76;100416.91;4949257;28;20057;-80
2022/05/01 10:41:11;;;;;;;17.83;10.82;;;;;;;14.41;60.67;100413.53;4962668;28;20043;-79
2022/05/01 10:43:58;;;;;;;20.05;12.50;;;;;;;14.43;59.59;100405.38;4953997;28;20555;-79
2022/05/01 10:46:24;;;;;;;21.85;12.25;;;;;;;14.41;60.92;100402.00;4964115;28;20386;-80
2022/05/01 10:48:51;;;;;;;20.10;12.70;;;;;;;14.46;60.84;100402.41;4981689;28;20076;-80
2022/05/01 10:51:27;;;;;;;20.98;12.65;;;;;;;14.21;61.00;100399.41;4970708;28;20375;-80
2022/05/01 10:54:30;;;;;;;23.90;12.63;;;;;;;14.27;60.26;100387.28;4966564;28;20051;-79
2022/05/01 10:57:08;;;;;;;23.45;13.60;;;;;;;14.41;60.89;100386.81;4903245;28;20042;-79
2022/05/01 10:59:46;;;;;;;23.77;14.27;;;;;;;14.54;60.75;100387.34;4980902;28;20046;-79
2022/05/01 11:02:22;;;;;;;25.65;14.35;;;;;;;14.52;60.39;100397.28;4951253;28;20066;-80
2022/05/01 11:04:52;;;;;;;18.60;11.63;;;;;;;14.51;60.53;100384.94;4955576;28;20150;-79
2022/05/01 11:07:20;;;;;;;21.30;11.93;;;;;;;14.53;60.38;100392.84;4983115;28;20050;-80
2022/05/01 11:09:49;;;;;;;20.60;11.60;;;;;;;14.44;60.22;100389.19;4945949;28;20053;-80
2022/05/01 11:12:22;;;;;;;21.40;12.15;;;;;;;14.45;59.60;100382.88;4980130;28;20042;-79
2022/05/01 11:15:08;;;;;;;19.65;11.25;;;;;;;14.44;59.50;100385.66;4920812;28;20058;-80
2022/05/01 11:17:49;;;;;;;20.38;13.23;;;;;;;14.54;60.40;100386.50;4928646;28;20403;-79
2022/05/01 11:20:18;;;;;;;19.83;12.75;;;;;;;14.50;60.82;100390.41;4929427;28;20128;-80
2022/05/01 11:22:45;;;;;;;23.88;14.25;;;;;;;14.61;60.69;100387.59;4930605;28;20074;-84
2022/05/01 11:25:19;;;;;;;23.63;14.65;;;;;;;14.58;60.64;100379.88;4942429;28;20402;-83
2022/05/01 11:27:55;;;;;;;21.70;13.88;;;;;;;14.54;60.31;100383.84;4949938;28;20055;-83
2022/05/01 11:30:30;;;;;;;25.40;15.55;;;;;;;14.44;61.17;100385.66;4950346;28;20054;-82
2022/05/01 11:33:01;;;;;;;27.13;16.23;;;;;;;14.49;61.82;100380.72;4933624;28;20046;-83
2022/05/01 11:35:56;;;;;;;27.75;16.58;;;;;;;14.58;61.21;100387.91;4943040;28;20058;-84
2022/05/01 11:38:23;;;;;;;29.35;16.15;;;;;;;14.57;61.27;100382.69;4927755;28;20054;-83
2022/05/01 11:40:55;;;;;;;29.27;15.52;;;;;;;14.58;61.49;100379.03;4931545;28;20390;-83
2022/05/01 11:43:22;;;;;;;24.63;15.63;;;;;;;14.62;61.17;100383.09;4922595;28;20051;-84
2022/05/01 11:45:49;;;;;;;28.77;16.48;;;;;;;14.73;60.48;100374.84;4942783;28;20053;-83
2022/05/01 11:48:18;;;;;;;29.63;15.38;;;;;;;14.70;60.48;100381.34;4983284;28;20088;-83
2022/05/01 11:50:48;;;;;;;27.25;16.60;;;;;;;14.75;60.38;100372.88;4981302;28;20066;-84
2022/05/01 11:53:28;;;;;;;32.00;16.65;;;;;;;14.74;59.72;100372.03;4960641;28;20533;-83